createdAt,value
2022-11-29T00:00:47.172Z,93918.56
2022-11-29T00:03:14.833Z,93915.25
2022-11-29T00:05:41.388Z,93920.63
2022-11-29T00:08:07.840Z,93917.81
2022-11-29T00:10:37.993Z,93906.19
2022-11-29T00:13:05.149Z,93910.31
2022-11-29T00:15:38.776Z,93914.72
2022-11-29T00:18:06.432Z,93910.56
2022-11-29T00:20:35.010Z,93912.13
2022-11-29T00:23:01.792Z,93911.34
2022-11-29T00:25:28.186Z,93904.63
2022-11-29T00:27:54.621Z,93904.38
2022-11-29T00:30:21.581Z,93914.72
2022-11-29T00:32:48.224Z,93910.28
2022-11-29T00:35:14.670Z,93909.28
2022-11-29T00:37:41.088Z,93909.28
2022-11-29T00:40:08.235Z,93911.06
2022-11-29T00:42:34.620Z,93905.38
2022-11-29T00:45:01.000Z,93906.69
2022-11-29T00:47:27.421Z,93908.47
2022-11-29T00:49:53.859Z,93904.09
2022-11-29T00:52:20.282Z,93911.31
2022-11-29T00:54:46.917Z,93906.16
2022-11-29T00:57:13.470Z,93905.63
2022-11-29T00:59:39.849Z,93912.34
2022-11-29T01:02:06.351Z,93901.00
2022-11-29T01:04:32.822Z,93900.47
2022-11-29T01:06:59.244Z,93910.00
2022-11-29T01:09:25.667Z,93909.50
2022-11-29T01:11:52.109Z,93911.28
2022-11-29T01:14:18.601Z,93909.50
2022-11-29T01:16:45.028Z,93906.66
2022-11-29T01:19:12.814Z,93910.28
2022-11-29T01:21:39.274Z,93908.19
2022-11-29T01:24:05.844Z,93908.19
2022-11-29T01:26:32.352Z,93907.41
2022-11-29T01:28:59.497Z,93906.38
2022-11-29T01:31:31.696Z,93910.00
2022-11-29T01:34:02.756Z,93909.75
2022-11-29T01:36:29.428Z,93909.75
2022-11-29T01:38:58.182Z,93906.13
2022-11-29T01:41:27.078Z,93909.22
2022-11-29T01:43:58.552Z,93912.31
2022-11-29T01:46:26.036Z,93913.88
2022-11-29T01:48:56.410Z,93911.53
2022-11-29T01:51:23.125Z,93914.91
2022-11-29T01:53:49.605Z,93912.81
2022-11-29T01:56:16.396Z,93904.28
2022-11-29T01:58:44.836Z,93908.94
2022-11-29T02:01:11.504Z,93909.72
2022-11-29T02:03:37.992Z,93913.31
2022-11-29T02:06:05.122Z,93911.25
2022-11-29T02:08:40.413Z,93909.44
2022-11-29T02:11:48.170Z,93904.00
2022-11-29T02:14:36.078Z,93907.63
2022-11-29T02:17:28.325Z,93907.88
2022-11-29T02:20:10.196Z,93907.09
2022-11-29T02:22:48.740Z,93897.03
2022-11-29T02:25:33.876Z,93905.06
2022-11-29T02:28:40.615Z,93903.50
2022-11-29T02:31:18.047Z,93910.75
2022-11-29T02:34:00.383Z,93912.28
2022-11-29T02:36:38.070Z,93906.59
2022-11-29T02:39:32.990Z,93906.09
2022-11-29T02:42:27.068Z,93908.94
2022-11-29T02:45:02.692Z,93905.06
2022-11-29T02:47:44.506Z,93905.06
2022-11-29T02:50:34.487Z,93910.22
2022-11-29T02:53:27.832Z,93908.69
2022-11-29T02:56:20.186Z,93914.91
2022-11-29T02:59:06.121Z,93907.41
2022-11-29T03:02:01.944Z,93914.38
2022-11-29T03:04:40.811Z,93912.56
2022-11-29T03:07:12.941Z,93917.97
2022-11-29T03:09:55.442Z,93909.72
2022-11-29T03:12:40.677Z,93917.44
2022-11-29T03:15:28.914Z,93917.44
2022-11-29T03:18:07.386Z,93918.22
2022-11-29T03:21:03.389Z,93925.72
2022-11-29T03:23:36.523Z,93918.47
2022-11-29T03:26:11.087Z,93928.78
2022-11-29T03:28:42.995Z,93922.34
2022-11-29T03:31:21.040Z,93927.22
2022-11-29T03:34:00.202Z,93926.19
2022-11-29T03:36:37.759Z,93926.97
2022-11-29T03:39:07.460Z,93931.34
2022-11-29T03:41:57.206Z,93930.84
2022-11-29T03:44:31.796Z,93936.00
2022-11-29T03:47:09.894Z,93927.19
2022-11-29T03:49:44.997Z,93932.38
2022-11-29T03:52:42.937Z,93937.25
2022-11-29T03:55:19.089Z,93927.69
2022-11-29T03:57:57.688Z,93936.47
2022-11-29T04:00:24.489Z,93932.88
2022-11-29T04:03:15.990Z,93925.91
2022-11-29T04:06:03.889Z,93930.00
2022-11-29T04:08:48.206Z,93927.19
2022-11-29T04:11:35.481Z,93925.09
2022-11-29T04:14:39.280Z,93931.03
2022-11-29T04:17:24.640Z,93931.81
2022-11-29T04:20:17.772Z,93930.25
2022-11-29T04:23:29.419Z,93930.25
2022-11-29T04:26:16.549Z,93932.63
2022-11-29T04:29:15.626Z,93932.34
2022-11-29T04:31:59.619Z,93935.72
2022-11-29T04:34:47.845Z,93943.19
2022-11-29T04:37:51.833Z,93946.31
2022-11-29T04:40:21.223Z,93941.13
2022-11-29T04:43:00.645Z,93942.66
2022-11-29T04:45:45.532Z,93947.81
2022-11-29T04:48:33.405Z,93949.88
2022-11-29T04:51:38.030Z,93958.41
2022-11-29T04:54:38.184Z,93950.91
2022-11-29T04:57:17.573Z,93961.25
2022-11-29T05:00:00.020Z,93963.59
2022-11-29T05:02:39.490Z,93954.03
2022-11-29T05:05:44.053Z,93955.56
2022-11-29T05:08:34.565Z,93961.25
2022-11-29T05:11:09.988Z,93960.19
2022-11-29T05:13:55.137Z,93956.84
2022-11-29T05:16:47.919Z,93958.66
2022-11-29T05:19:42.419Z,93964.59
2022-11-29T05:22:31.546Z,93960.19
2022-11-29T05:25:15.549Z,93961.75
2022-11-29T05:28:10.325Z,93966.66
2022-11-29T05:31:08.709Z,93965.34
2022-11-29T05:33:53.892Z,93978.00
2022-11-29T05:36:50.806Z,93962.22
2022-11-29T05:39:26.139Z,93968.94
2022-11-29T05:42:05.485Z,93976.44
2022-11-29T05:44:34.323Z,93982.38
2022-11-29T05:47:02.803Z,93975.13
2022-11-29T05:49:56.198Z,93979.75
2022-11-29T05:52:48.620Z,93978.75
2022-11-29T05:55:15.167Z,93984.94
2022-11-29T05:58:08.480Z,93985.47
2022-11-29T06:00:45.888Z,93985.19
2022-11-29T06:03:33.340Z,93983.38
2022-11-29T06:06:16.886Z,93985.97
2022-11-29T06:08:54.813Z,93992.66
2022-11-29T06:11:30.752Z,93989.06
2022-11-29T06:14:08.624Z,93995.00
2022-11-29T06:16:53.448Z,93996.56
2022-11-29T06:19:46.586Z,93999.41
2022-11-29T06:22:50.428Z,94001.44
2022-11-29T06:25:20.338Z,94000.66
2022-11-29T06:28:16.613Z,94008.19
2022-11-29T06:31:17.587Z,94013.34
2022-11-29T06:33:54.657Z,94014.88
2022-11-29T06:36:31.117Z,94012.03
2022-11-29T06:38:57.843Z,94006.34
2022-11-29T06:41:24.693Z,94006.59
2022-11-29T06:43:51.529Z,94016.94
2022-11-29T06:46:47.050Z,94021.59
2022-11-29T06:49:19.944Z,94020.03
2022-11-29T06:52:26.479Z,94020.81
2022-11-29T06:55:05.170Z,94017.44
2022-11-29T06:57:47.364Z,94023.38
2022-11-29T07:00:20.997Z,94028.31
2022-11-29T07:03:06.744Z,94026.22
2022-11-29T07:05:35.337Z,94031.41
2022-11-29T07:08:13.752Z,94029.59
2022-11-29T07:10:41.393Z,94028.53
2022-11-29T07:13:08.043Z,94047.16
2022-11-29T07:15:36.603Z,94044.31
2022-11-29T07:18:19.968Z,94043.78
2022-11-29T07:21:16.554Z,94045.06
2022-11-29T07:24:13.487Z,94049.41
2022-11-29T07:27:01.801Z,94050.72
2022-11-29T07:29:48.681Z,94052.28
2022-11-29T07:32:50.338Z,94044.25
2022-11-29T07:35:38.592Z,94046.59
2022-11-29T07:38:29.295Z,94048.88
2022-11-29T07:41:20.343Z,94047.88
2022-11-29T07:44:17.063Z,94046.84
2022-11-29T07:46:43.560Z,94049.41
2022-11-29T07:49:11.252Z,94053.00
2022-11-29T07:51:37.795Z,94051.19
2022-11-29T07:54:04.459Z,94057.66
2022-11-29T07:56:30.872Z,94052.47
2022-11-29T07:58:57.366Z,94053.25
2022-11-29T08:01:23.851Z,94056.09
2022-11-29T08:03:50.320Z,94056.63
2022-11-29T08:06:16.766Z,94056.38
2022-11-29T08:08:44.343Z,94057.13
2022-11-29T08:11:12.610Z,94064.34
2022-11-29T08:13:38.991Z,94064.84
2022-11-29T08:16:05.667Z,94061.25
2022-11-29T08:18:32.218Z,94067.94
2022-11-29T08:20:58.607Z,94066.41
2022-11-29T08:23:25.036Z,94069.78
2022-11-29T08:25:59.375Z,94073.13
2022-11-29T08:28:26.097Z,94066.41
2022-11-29T08:31:03.789Z,94076.75
2022-11-29T08:33:30.289Z,94072.38
2022-11-29T08:35:56.912Z,94076.22
2022-11-29T08:38:23.371Z,94080.34
2022-11-29T08:40:49.828Z,94077.75
2022-11-29T08:43:16.259Z,94081.13
2022-11-29T08:45:42.654Z,94080.88
2022-11-29T08:48:09.095Z,94081.63
2022-11-29T08:50:35.528Z,94081.63
2022-11-29T08:53:20.496Z,94076.72
2022-11-29T08:55:46.884Z,94084.50
2022-11-29T08:58:15.425Z,94077.28
2022-11-29T09:00:44.438Z,94083.47
2022-11-29T09:03:29.689Z,94091.22
2022-11-29T09:05:57.465Z,94093.06
2022-11-29T09:08:23.883Z,94097.47
2022-11-29T09:10:50.423Z,94090.72
2022-11-29T09:13:18.061Z,94097.47
2022-11-29T09:15:44.497Z,94096.41
2022-11-29T09:18:11.395Z,94103.63
2022-11-29T09:20:37.882Z,94100.81
2022-11-29T09:23:04.715Z,94099.50
2022-11-29T09:25:31.301Z,94112.94
2022-11-29T09:28:01.802Z,94113.97
2022-11-29T09:30:31.339Z,94116.28
2022-11-29T09:33:00.647Z,94114.47
2022-11-29T09:35:27.122Z,94115.75
2022-11-29T09:37:53.560Z,94125.31
2022-11-29T09:40:25.419Z,94123.22
2022-11-29T09:43:39.072Z,94122.69
2022-11-29T09:46:19.076Z,94120.88
2022-11-29T09:49:03.883Z,94122.69
2022-11-29T09:51:41.148Z,94117.78
2022-11-29T09:54:40.981Z,94121.69
2022-11-29T09:57:10.914Z,94119.88
2022-11-29T09:59:48.741Z,94118.59
2022-11-29T10:02:37.293Z,94120.13
2022-11-29T10:05:24.365Z,94125.06
2022-11-29T10:08:06.540Z,94131.28
2022-11-29T10:10:43.146Z,94125.56
2022-11-29T10:13:33.344Z,94125.56
2022-11-29T10:16:10.168Z,94125.03
2022-11-29T10:19:12.837Z,94115.47
2022-11-29T10:21:42.964Z,94113.91
2022-11-29T10:24:17.812Z,94118.78
2022-11-29T10:26:44.431Z,94117.00
2022-11-29T10:29:16.033Z,94119.56
2022-11-29T10:31:49.309Z,94120.63
2022-11-29T10:34:18.272Z,94119.06
2022-11-29T10:36:47.926Z,94119.56
2022-11-29T10:39:30.774Z,94116.47
2022-11-29T10:42:01.591Z,94115.97
2022-11-29T10:44:29.144Z,94114.91
2022-11-29T10:46:56.043Z,94112.06
2022-11-29T10:49:27.148Z,94107.13
2022-11-29T10:51:53.583Z,94113.31
2022-11-29T10:54:25.963Z,94114.31
2022-11-29T10:56:52.404Z,94120.00
2022-11-29T10:59:21.483Z,94112.75
2022-11-29T11:01:47.934Z,94117.44
2022-11-29T11:04:17.310Z,94117.69
2022-11-29T11:06:52.163Z,94118.47
2022-11-29T11:09:40.491Z,94125.22
2022-11-29T11:12:18.824Z,94116.38
2022-11-29T11:14:46.897Z,94117.94
2022-11-29T11:17:26.286Z,94125.47
2022-11-29T11:20:18.874Z,94118.19
2022-11-29T11:22:57.651Z,94119.72
2022-11-29T11:25:45.720Z,94116.88
2022-11-29T11:28:25.141Z,94119.97
2022-11-29T11:31:01.825Z,94119.97
2022-11-29T11:33:39.679Z,94112.19
2022-11-29T11:36:13.669Z,94110.38
2022-11-29T11:39:23.022Z,94111.16
2022-11-29T11:42:09.908Z,94115.28
2022-11-29T11:44:52.422Z,94124.84
2022-11-29T11:47:25.474Z,94122.75
2022-11-29T11:50:07.598Z,94119.91
2022-11-29T11:52:41.300Z,94123.78
2022-11-29T11:55:21.365Z,94119.88
2022-11-29T11:58:16.272Z,94129.19
2022-11-29T12:01:05.091Z,94131.28
2022-11-29T12:03:59.985Z,94134.66
2022-11-29T12:06:52.465Z,94127.66
2022-11-29T12:09:32.384Z,94134.38
2022-11-29T12:12:14.666Z,94133.59
2022-11-29T12:14:59.880Z,94132.84
2022-11-29T12:17:39.981Z,94145.50
2022-11-29T12:20:24.757Z,94137.47
2022-11-29T12:22:53.962Z,94139.78
2022-11-29T12:25:30.407Z,94143.41
2022-11-29T12:27:56.877Z,94130.78
2022-11-29T12:30:23.477Z,94156.13
2022-11-29T12:33:15.504Z,94144.97
2022-11-29T12:35:58.484Z,94146.53
2022-11-29T12:38:59.928Z,94147.81
2022-11-29T12:41:41.713Z,94150.91
2022-11-29T12:44:22.429Z,94150.34
2022-11-29T12:47:28.178Z,94143.88
2022-11-29T12:50:07.240Z,94152.13
2022-11-29T12:53:01.326Z,94150.31
2022-11-29T12:55:43.718Z,94151.34
2022-11-29T12:58:25.362Z,94151.56
2022-11-29T13:01:20.660Z,94147.66
2022-11-29T13:04:00.573Z,94148.44
2022-11-29T13:06:28.525Z,94150.25
2022-11-29T13:09:03.093Z,94145.59
2022-11-29T13:11:37.574Z,94148.91
2022-11-29T13:14:42.591Z,94160.06
2022-11-29T13:17:24.582Z,94155.41
2022-11-29T13:19:58.163Z,94160.59
2022-11-29T13:22:49.044Z,94155.22
2022-11-29T13:25:23.549Z,94157.56
2022-11-29T13:28:00.263Z,94167.91
2022-11-29T13:30:26.948Z,94160.66
2022-11-29T13:33:17.466Z,94165.78
2022-11-29T13:35:53.539Z,94164.25
2022-11-29T13:38:29.370Z,94169.44
2022-11-29T13:41:22.688Z,94157.03
2022-11-29T13:43:56.554Z,94169.97
2022-11-29T13:46:35.822Z,94169.97
2022-11-29T13:49:02.305Z,94166.84
2022-11-29T13:51:38.128Z,94158.84
2022-11-29T13:54:07.374Z,94171.25
2022-11-29T13:56:48.153Z,94178.00
2022-11-29T13:59:23.083Z,94170.28
2022-11-29T14:01:53.808Z,94176.47
2022-11-29T14:04:20.300Z,94178.28
2022-11-29T14:06:48.269Z,94185.78
2022-11-29T14:09:27.898Z,94183.19
2022-11-29T14:12:24.353Z,94181.66
2022-11-29T14:15:00.999Z,94182.44
2022-11-29T14:17:47.385Z,94179.31
2022-11-29T14:20:22.688Z,94183.72
2022-11-29T14:23:04.402Z,94187.13
2022-11-29T14:28:18.142Z,94186.13
2022-11-29T14:30:44.477Z,94179.41
2022-11-29T14:34:00.305Z,94182.53
2022-11-29T14:36:47.975Z,94190.81
2022-11-29T14:39:26.289Z,94190.56
2022-11-29T14:42:15.245Z,94190.56
2022-11-29T14:44:49.239Z,94192.41
2022-11-29T14:47:29.656Z,94202.25
2022-11-29T14:49:58.244Z,94192.97
2022-11-29T14:52:32.462Z,94201.78
2022-11-29T14:55:15.933Z,94199.44
2022-11-29T14:58:01.024Z,94201.28
2022-11-29T15:00:30.515Z,94205.69
2022-11-29T15:03:15.403Z,94205.94
2022-11-29T15:05:44.974Z,94202.31
2022-11-29T15:08:26.677Z,94204.41
2022-11-29T15:10:57.400Z,94206.50
2022-11-29T15:13:29.235Z,94213.72
2022-11-29T15:16:11.043Z,94206.50
2022-11-29T15:19:00.304Z,94207.53
2022-11-29T15:21:54.752Z,94210.91
2022-11-29T15:24:26.857Z,94215.34
2022-11-29T15:27:00.195Z,94214.31
2022-11-29T15:29:28.665Z,94218.44
2022-11-29T15:31:58.643Z,94229.34
2022-11-29T15:34:28.117Z,94222.59
2022-11-29T15:36:54.540Z,94227.78
2022-11-29T15:39:33.868Z,94232.97
2022-11-29T15:42:20.535Z,94232.47
2022-11-29T15:44:48.176Z,94234.00
2022-11-29T15:47:25.837Z,94243.34
2022-11-29T15:49:54.085Z,94248.78
2022-11-29T15:52:46.666Z,94251.38
2022-11-29T15:55:14.361Z,94246.72
2022-11-29T15:57:47.940Z,94251.63
2022-11-29T16:00:20.295Z,94251.91
2022-11-29T16:02:52.118Z,94242.34
2022-11-29T16:05:23.198Z,94257.59
2022-11-29T16:07:53.478Z,94253.22
2022-11-29T16:10:24.865Z,94260.72
2022-11-29T16:12:58.563Z,94262.03
2022-11-29T16:15:31.658Z,94263.56
2022-11-29T16:18:19.767Z,94256.59
2022-11-29T16:21:00.003Z,94261.75
2022-11-29T16:23:34.379Z,94266.16
2022-11-29T16:26:16.553Z,94262.53
2022-11-29T16:28:48.660Z,94268.22
2022-11-29T16:31:24.747Z,94273.41
2022-11-29T16:33:52.437Z,94272.38
2022-11-29T16:36:23.454Z,94269.53
2022-11-29T16:38:58.520Z,94267.22
2022-11-29T16:41:38.414Z,94271.84
2022-11-29T16:44:26.382Z,94272.38
2022-11-29T16:47:12.130Z,94279.59
2022-11-29T16:49:38.589Z,94282.47
2022-11-29T16:52:23.780Z,94277.28
2022-11-29T16:54:50.642Z,94276.78
2022-11-29T16:57:17.765Z,94277.56
2022-11-29T16:59:44.349Z,94276.78
2022-11-29T17:02:11.847Z,94278.59
2022-11-29T17:04:38.300Z,94280.91
2022-11-29T17:07:07.371Z,94284.56
2022-11-29T17:09:34.692Z,94252.50
2022-11-29T17:12:02.501Z,94290.25
2022-11-29T17:14:29.620Z,94289.47
2022-11-29T17:16:56.135Z,94276.28
2022-11-29T17:19:23.793Z,94287.13
2022-11-29T17:21:51.625Z,94288.69
2022-11-29T17:24:19.867Z,94292.59
2022-11-29T17:26:46.429Z,94301.88
2022-11-29T17:29:15.123Z,94303.44
2022-11-29T17:31:44.168Z,94301.88
2022-11-29T17:34:10.670Z,94305.53
2022-11-29T17:36:37.602Z,94310.94
2022-11-29T17:39:05.333Z,94310.44
2022-11-29T17:41:32.792Z,94311.72
2022-11-29T17:43:59.931Z,94309.94
2022-11-29T17:46:29.174Z,94315.88
2022-11-29T17:48:57.985Z,94315.09
2022-11-29T17:54:11.450Z,94315.88
2022-11-29T17:56:37.909Z,94323.63
2022-11-29T17:59:05.293Z,94320.78
2022-11-29T18:01:33.714Z,94308.09
2022-11-29T18:04:01.654Z,94319.47
2022-11-29T18:06:31.357Z,94324.16
2022-11-29T18:08:59.672Z,94323.13
2022-11-29T18:11:31.322Z,94322.06
2022-11-29T18:13:58.686Z,94319.47
2022-11-29T18:16:31.424Z,94318.19
2022-11-29T18:18:59.187Z,94321.06
2022-11-29T18:21:25.762Z,94326.47
2022-11-29T18:23:53.294Z,94322.59
2022-11-29T18:26:22.030Z,94314.84
2022-11-29T18:28:49.687Z,94320.00
2022-11-29T18:31:24.948Z,94321.56
2022-11-29T18:33:56.676Z,94314.84
2022-11-29T18:36:27.700Z,94309.66
2022-11-29T18:38:56.810Z,94318.72
2022-11-29T18:41:24.446Z,94319.50
2022-11-29T18:43:58.868Z,94321.06
2022-11-29T18:46:26.244Z,94320.78
2022-11-29T18:48:52.909Z,94329.31
2022-11-29T18:51:20.236Z,94337.88
2022-11-29T18:53:46.966Z,94321.81
2022-11-29T18:56:19.447Z,94338.66
2022-11-29T18:58:56.730Z,94338.66
2022-11-29T19:01:26.865Z,94342.00
2022-11-29T19:03:55.355Z,94343.03
2022-11-29T19:06:39.458Z,94338.66
2022-11-29T19:09:08.205Z,94342.00
2022-11-29T19:11:34.868Z,94343.28
2022-11-29T19:14:04.632Z,94344.34
2022-11-29T19:16:33.899Z,94335.53
2022-11-29T19:19:01.438Z,94339.16
2022-11-29T19:21:31.675Z,94341.22
2022-11-29T19:24:01.498Z,94343.28
2022-11-29T19:26:30.285Z,94348.47
2022-11-29T19:28:57.511Z,94351.06
2022-11-29T19:31:25.138Z,94345.38
2022-11-29T19:33:52.647Z,94350.53
2022-11-29T19:36:29.646Z,94353.91
2022-11-29T19:38:57.133Z,94358.03
2022-11-29T19:41:32.228Z,94353.41
2022-11-29T19:44:01.026Z,94345.88
2022-11-29T19:46:35.984Z,94343.03
2022-11-29T19:49:04.367Z,94338.38
2022-11-29T19:51:31.110Z,94339.69
2022-11-29T19:54:00.214Z,94352.59
2022-11-29T19:56:27.650Z,94353.13
2022-11-29T19:58:55.198Z,94354.94
2022-11-29T20:01:25.039Z,94354.41
2022-11-29T20:03:52.648Z,94368.66
2022-11-29T20:06:19.455Z,94361.41
2022-11-29T20:08:46.009Z,94362.69
2022-11-29T20:11:15.336Z,94361.13
2022-11-29T20:13:43.923Z,94358.81
2022-11-29T20:16:13.689Z,94367.59
2022-11-29T20:18:50.221Z,94374.84
2022-11-29T20:21:20.205Z,94372.53
2022-11-29T20:23:47.158Z,94375.38
2022-11-29T20:26:19.369Z,94380.53
2022-11-29T20:28:46.735Z,94375.88
2022-11-29T20:31:16.951Z,94371.47
2022-11-29T20:33:46.042Z,94374.34
2022-11-29T20:36:37.600Z,94370.19
2022-11-29T20:39:06.790Z,94367.09
2022-11-29T20:41:40.165Z,94378.47
2022-11-29T20:44:10.052Z,94382.88
2022-11-29T20:46:36.652Z,94376.94
2022-11-29T20:49:06.716Z,94379.50
2022-11-29T20:51:42.668Z,94387.00
2022-11-29T20:54:11.809Z,94375.13
2022-11-29T20:56:46.448Z,94367.88
2022-11-29T20:59:39.652Z,94393.22
2022-11-29T21:02:09.913Z,94386.22
2022-11-29T21:04:36.727Z,94396.03
2022-11-29T21:07:03.309Z,94396.03
2022-11-29T21:09:29.736Z,94397.06
2022-11-29T21:11:56.470Z,94390.84
2022-11-29T21:14:23.261Z,94387.75
2022-11-29T21:16:49.892Z,94390.59
2022-11-29T21:19:20.122Z,94390.31
2022-11-29T21:22:02.601Z,94389.53
2022-11-29T21:24:48.032Z,94396.28
2022-11-29T21:27:20.291Z,94393.41
2022-11-29T21:29:47.006Z,94396.78
2022-11-29T21:32:21.816Z,94396.50
2022-11-29T21:34:48.849Z,94392.91
2022-11-29T21:37:18.383Z,94400.16
2022-11-29T21:39:45.249Z,94390.81
2022-11-29T21:42:11.737Z,94395.47
2022-11-29T21:44:38.381Z,94391.59
2022-11-29T21:47:05.084Z,94403.22
2022-11-29T21:49:31.613Z,94398.56
2022-11-29T21:52:00.976Z,94410.19
2022-11-29T21:54:28.099Z,94411.72
2022-11-29T21:56:55.312Z,94406.28
2022-11-29T21:59:24.761Z,94404.22
2022-11-29T22:01:52.748Z,94407.28
2022-11-29T22:04:19.722Z,94412.94
2022-11-29T22:06:47.176Z,94410.34
2022-11-29T22:09:13.810Z,94401.53
2022-11-29T22:11:40.695Z,94408.78
2022-11-29T22:14:19.048Z,94407.72
2022-11-29T22:16:50.980Z,94412.88
2022-11-29T22:19:31.503Z,94406.41
2022-11-29T22:21:59.936Z,94410.78
2022-11-29T22:24:28.700Z,94411.31
2022-11-29T22:26:56.096Z,94411.03
2022-11-29T22:29:23.725Z,94413.09
2022-11-29T22:31:52.948Z,94410.25
2022-11-29T22:34:20.200Z,94413.84
2022-11-29T22:36:46.955Z,94411.25
2022-11-29T22:39:14.246Z,94410.47
2022-11-29T22:41:40.865Z,94411.75
2022-11-29T22:44:07.680Z,94406.56
2022-11-29T22:46:39.127Z,94411.75
2022-11-29T22:49:05.549Z,94422.84
2022-11-29T22:51:35.484Z,94418.16
2022-11-29T22:54:05.140Z,94411.97
2022-11-29T22:56:35.188Z,94416.38
2022-11-29T22:59:01.826Z,94408.09
2022-11-29T23:01:30.687Z,94411.19
2022-11-29T23:03:59.090Z,94411.19
2022-11-29T23:06:37.535Z,94420.47
2022-11-29T23:09:07.388Z,94423.31
2022-11-29T23:11:33.806Z,94417.34
2022-11-29T23:14:00.262Z,94412.72
2022-11-29T23:16:28.426Z,94407.84
2022-11-29T23:18:58.218Z,94403.75
2022-11-29T23:21:27.188Z,94410.69
2022-11-29T23:23:56.656Z,94416.88
2022-11-29T23:26:39.581Z,94421.03
2022-11-29T23:29:08.809Z,94419.75
2022-11-29T23:31:35.293Z,94416.66
2022-11-29T23:34:02.438Z,94409.91
2022-11-29T23:36:28.920Z,94397.28
2022-11-29T23:38:55.321Z,94397.28
2022-11-29T23:41:21.700Z,94404.78
2022-11-29T23:43:48.193Z,94406.66
2022-11-29T23:46:20.699Z,94411.31
2022-11-29T23:48:47.567Z,94406.91
2022-11-29T23:51:14.706Z,94411.31
2022-11-29T23:53:41.976Z,94399.16
2022-11-29T23:56:18.036Z,94396.06
2022-11-29T23:58:44.822Z,94395.28
